Hlavní strana
METAR-TAF:

METAR-TAF

Letiště :

Bělgorod, Rusko

zeměpisná šířka: 50-38-36N, zeměpisná délka: 036-35-24E, výška: 224 m

Aktuální stav počasí

Zpráva byla vytvořena před 29 minutami, v 00:30 UTC
Západoseverozápadní vítr 17 kt
Teplota 5°C
Vlhkost vzduchu 81%
Tlak 1010 hPa
Viditelnost 10 km a více
Oblačno až skoro zataženo ve výšce 1500 ft

METAR: UUOB 090030Z 30009MPS 9999 BKN015 05/02 Q1010 R29/290055 NOSIG

Čas: 03:59 (00:59 UTC)

Předpověď počasí

Zpráva byla vytvořena před 1 hodinou a 59 minutami, v 23:00 UTC
Předpověď platná od 09 v 00 UTC do 09 v 09 UTC
Západoseverozápadní vítr 14 kt s nárazy do 23 kt
Viditelnost: 8000 m
Oblačno až skoro zataženo ve výšce 2000 ft
Dočasný
od 09 v 00 UTC do 09 v 03 UTC
Oblačno až skoro zataženo ve výšce 1100 ft

TAF: UUOB 082300Z 0900/0909 29007G12MPS 8000 BKN020 TEMPO 0900/0903 BKN011

Stav a předpovědi počasí z více než 4 000 letišť (zprávy METAR a TAF).

Červené a žluté tečky na mapě představují dostupné meteorologické stanice.

Když kurzor umístíte na tečku, zobrazí se název stanice.

Pak kliknutím zobrazíte stav a předpověď počasí.

Chcete-li změnit mapu, kliknutím na zelené tlačítko se znaménkem +mapu přiblížíte, kliknutím na zelené tlačítko se znaménkem – mapu oddálíte a kliknutím na zelené šipky přejdete na sousední mapy.


METAR-TAF: